Stringtown, Iowa
Current Conditions -  °F | °C
As of 4:55 AM on Wednesday 22 Oct 2014 (Local Time) from KCSQ Reporting Station
Broken Clouds Broken Clouds  
Wind Chill: 42°   Ceiling: 7000
Heat Index: 46°   Visibility: 10mi
Dew Point: 41°   Wind: 9mph
Humidity: 81%   Direction: 140°SE
Pressure: 30.18"   Gusts: NA
Location:  40.8856°N, 94.5654°W
Report Text: KCSQ 220955Z AUTO 14008KT 10SM SCT049 BKN070 08/05 A3018 RMK AO2
Loading
Personal Weather Stations






























Interactive Weather Map New forecast layout! Learn more

10-Day Weather Forecast

Advertisements
Track Severe Weather on mobile